sensor_id;sensor_type;location;lat;lon;timestamp;pressure;altitude;pressure_sealevel;temperature;humidity
63181;BME280;49273;37.772;-122.432;2022-07-04T00:00:28;100979.49;;;24.47;41.91
63181;BME280;49273;37.772;-122.432;2022-07-04T00:02:56;100975.79;;;24.96;40.94
63181;BME280;49273;37.772;-122.432;2022-07-04T00:05:24;100979.84;;;24.55;41.38
63181;BME280;49273;37.772;-122.432;2022-07-04T00:07:53;100974.66;;;24.54;41.04
63181;BME280;49273;37.772;-122.432;2022-07-04T00:10:21;100976.31;;;24.55;41.11
63181;BME280;49273;37.772;-122.432;2022-07-04T00:12:50;100977.13;;;24.31;41.84
63181;BME280;49273;37.772;-122.432;2022-07-04T00:15:18;100977.17;;;24.82;40.88
63181;BME280;49273;37.772;-122.432;2022-07-04T00:17:46;100976.90;;;25.24;40.09
63181;BME280;49273;37.772;-122.432;2022-07-04T00:20:14;100973.70;;;25.50;39.39
63181;BME280;49273;37.772;-122.432;2022-07-04T00:22:43;100964.23;;;25.51;39.50
63181;BME280;49273;37.772;-122.432;2022-07-04T00:25:11;100968.43;;;25.42;39.34
63181;BME280;49273;37.772;-122.432;2022-07-04T00:27:39;100973.54;;;25.64;38.74
63181;BME280;49273;37.772;-122.432;2022-07-04T00:30:09;100968.16;;;25.68;38.98
63181;BME280;49273;37.772;-122.432;2022-07-04T00:32:37;100969.40;;;26.87;36.70
63181;BME280;49273;37.772;-122.432;2022-07-04T00:35:06;100970.67;;;27.46;35.72
63181;BME280;49273;37.772;-122.432;2022-07-04T00:37:34;100972.75;;;27.19;35.71
63181;BME280;49273;37.772;-122.432;2022-07-04T00:40:03;100963.78;;;27.15;36.12
63181;BME280;49273;37.772;-122.432;2022-07-04T00:42:32;100963.31;;;27.12;35.57
63181;BME280;49273;37.772;-122.432;2022-07-04T00:45:01;100954.27;;;26.51;36.93
63181;BME280;49273;37.772;-122.432;2022-07-04T00:47:29;100961.73;;;26.64;36.76
63181;BME280;49273;37.772;-122.432;2022-07-04T00:49:57;100959.86;;;26.59;36.61
63181;BME280;49273;37.772;-122.432;2022-07-04T00:52:26;100956.64;;;27.08;35.78
63181;BME280;49273;37.772;-122.432;2022-07-04T00:54:54;100953.94;;;26.43;36.92
63181;BME280;49273;37.772;-122.432;2022-07-04T00:57:22;100955.77;;;26.98;36.26
63181;BME280;49273;37.772;-122.432;2022-07-04T00:59:50;100946.32;;;26.48;37.35
63181;BME280;49273;37.772;-122.432;2022-07-04T01:02:18;100944.17;;;25.97;37.86
63181;BME280;49273;37.772;-122.432;2022-07-04T01:04:47;100941.25;;;25.87;38.17
63181;BME280;49273;37.772;-122.432;2022-07-04T01:07:15;100941.24;;;26.06;37.92
63181;BME280;49273;37.772;-122.432;2022-07-04T01:09:44;100944.85;;;26.29;37.54
63181;BME280;49273;37.772;-122.432;2022-07-04T01:12:25;100938.61;;;26.07;38.02
63181;BME280;49273;37.772;-122.432;2022-07-04T01:14:53;100943.88;;;26.52;37.19
63181;BME280;49273;37.772;-122.432;2022-07-04T01:17:21;100935.08;;;26.16;37.85
63181;BME280;49273;37.772;-122.432;2022-07-04T01:19:49;100941.57;;;25.70;38.53
63181;BME280;49273;37.772;-122.432;2022-07-04T01:22:18;100929.85;;;25.46;38.72
63181;BME280;49273;37.772;-122.432;2022-07-04T01:24:46;100932.28;;;25.50;38.96
63181;BME280;49273;37.772;-122.432;2022-07-04T01:27:15;100931.17;;;25.92;38.63
63181;BME280;49273;37.772;-122.432;2022-07-04T01:29:44;100935.25;;;25.02;40.43
63181;BME280;49273;37.772;-122.432;2022-07-04T01:32:12;100935.61;;;24.34;41.87
63181;BME280;49273;37.772;-122.432;2022-07-04T01:34:40;100938.16;;;24.89;41.14
63181;BME280;49273;37.772;-122.432;2022-07-04T01:37:08;100934.44;;;24.54;41.81
63181;BME280;49273;37.772;-122.432;2022-07-04T01:39:36;100928.48;;;23.81;43.39
63181;BME280;49273;37.772;-122.432;2022-07-04T01:42:06;100923.60;;;23.73;43.67
63181;BME280;49273;37.772;-122.432;2022-07-04T01:44:34;100925.77;;;23.71;43.70
63181;BME280;49273;37.772;-122.432;2022-07-04T01:47:03;100924.34;;;23.62;44.10
63181;BME280;49273;37.772;-122.432;2022-07-04T01:49:31;100931.36;;;23.38;44.84
63181;BME280;49273;37.772;-122.432;2022-07-04T01:51:59;100934.09;;;23.79;44.04
63181;BME280;49273;37.772;-122.432;2022-07-04T01:54:27;100938.71;;;23.62;44.31
63181;BME280;49273;37.772;-122.432;2022-07-04T01:56:55;100941.03;;;22.05;48.17
63181;BME280;49273;37.772;-122.432;2022-07-04T01:59:23;100946.66;;;21.39;49.90
63181;BME280;49273;37.772;-122.432;2022-07-04T02:01:51;100948.85;;;20.29;52.97
63181;BME280;49273;37.772;-122.432;2022-07-04T02:04:19;100942.57;;;19.86;54.51
63181;BME280;49273;37.772;-122.432;2022-07-04T02:06:46;100946.20;;;19.65;55.13
63181;BME280;49273;37.772;-122.432;2022-07-04T02:09:14;100950.21;;;19.39;56.67
63181;BME280;49273;37.772;-122.432;2022-07-04T02:11:43;100948.84;;;18.85;58.31
63181;BME280;49273;37.772;-122.432;2022-07-04T02:14:11;100957.68;;;18.79;58.51
63181;BME280;49273;37.772;-122.432;2022-07-04T02:16:39;100959.32;;;18.28;59.94
63181;BME280;49273;37.772;-122.432;2022-07-04T02:19:07;100960.83;;;18.35;60.27
63181;BME280;49273;37.772;-122.432;2022-07-04T02:21:35;100962.72;;;18.14;60.72
63181;BME280;49273;37.772;-122.432;2022-07-04T02:24:03;100960.30;;;17.61;62.85
63181;BME280;49273;37.772;-122.432;2022-07-04T02:26:32;100955.00;;;17.44;62.94
63181;BME280;49273;37.772;-122.432;2022-07-04T02:29:00;100955.61;;;17.53;62.79
63181;BME280;49273;37.772;-122.432;2022-07-04T02:31:28;100957.11;;;17.45;63.81
63181;BME280;49273;37.772;-122.432;2022-07-04T02:33:55;100954.80;;;17.28;63.57
63181;BME280;49273;37.772;-122.432;2022-07-04T02:36:23;100954.55;;;16.87;64.73
63181;BME280;49273;37.772;-122.432;2022-07-04T02:38:51;100949.98;;;17.13;64.05
63181;BME280;49273;37.772;-122.432;2022-07-04T02:41:19;100950.83;;;16.72;65.84
63181;BME280;49273;37.772;-122.432;2022-07-04T02:43:52;100952.35;;;16.89;65.83
63181;BME280;49273;37.772;-122.432;2022-07-04T02:46:20;100949.36;;;16.81;65.98
63181;BME280;49273;37.772;-122.432;2022-07-04T02:48:47;100952.56;;;17.02;65.56
63181;BME280;49273;37.772;-122.432;2022-07-04T02:51:15;100947.20;;;16.91;66.09
63181;BME280;49273;37.772;-122.432;2022-07-04T02:53:43;100945.45;;;16.92;65.62
63181;BME280;49273;37.772;-122.432;2022-07-04T02:56:11;100943.12;;;17.17;65.15
63181;BME280;49273;37.772;-122.432;2022-07-04T02:58:39;100945.03;;;16.78;66.34
63181;BME280;49273;37.772;-122.432;2022-07-04T03:01:07;100941.13;;;16.72;66.12
63181;BME280;49273;37.772;-122.432;2022-07-04T03:03:35;100942.73;;;16.29;67.62
63181;BME280;49273;37.772;-122.432;2022-07-04T03:06:02;100943.71;;;16.47;67.07
63181;BME280;49273;37.772;-122.432;2022-07-04T03:08:30;100946.58;;;16.35;67.44
63181;BME280;49273;37.772;-122.432;2022-07-04T03:10:58;100951.40;;;16.37;67.79
63181;BME280;49273;37.772;-122.432;2022-07-04T03:13:26;100952.25;;;16.38;67.48
63181;BME280;49273;37.772;-122.432;2022-07-04T03:15:55;100952.08;;;16.37;67.67
63181;BME280;49273;37.772;-122.432;2022-07-04T03:18:22;100950.17;;;15.96;69.35
63181;BME280;49273;37.772;-122.432;2022-07-04T03:20:51;100954.40;;;16.01;69.22
63181;BME280;49273;37.772;-122.432;2022-07-04T03:23:19;100959.15;;;16.39;67.93
63181;BME280;49273;37.772;-122.432;2022-07-04T03:25:47;100953.81;;;16.02;69.69
63181;BME280;49273;37.772;-122.432;2022-07-04T03:28:15;100953.19;;;16.11;69.08
63181;BME280;49273;37.772;-122.432;2022-07-04T03:30:43;100956.94;;;15.90;69.81
63181;BME280;49273;37.772;-122.432;2022-07-04T03:33:10;100960.50;;;16.18;69.00
63181;BME280;49273;37.772;-122.432;2022-07-04T03:35:38;100964.09;;;16.05;69.45
63181;BME280;49273;37.772;-122.432;2022-07-04T03:38:06;100963.10;;;15.80;70.54
63181;BME280;49273;37.772;-122.432;2022-07-04T03:40:34;100964.47;;;15.83;70.49
63181;BME280;49273;37.772;-122.432;2022-07-04T03:43:02;100966.16;;;15.81;70.65
63181;BME280;49273;37.772;-122.432;2022-07-04T03:45:30;100968.52;;;15.73;71.08
63181;BME280;49273;37.772;-122.432;2022-07-04T03:47:58;100968.64;;;15.90;71.20
63181;BME280;49273;37.772;-122.432;2022-07-04T03:50:26;100968.96;;;15.82;71.86
63181;BME280;49273;37.772;-122.432;2022-07-04T03:52:54;100968.96;;;15.83;71.73
63181;BME280;49273;37.772;-122.432;2022-07-04T03:55:21;100967.13;;;15.96;71.78
63181;BME280;49273;37.772;-122.432;2022-07-04T03:57:50;100969.52;;;15.93;71.98
63181;BME280;49273;37.772;-122.432;2022-07-04T04:00:18;100971.23;;;15.91;72.31
63181;BME280;49273;37.772;-122.432;2022-07-04T04:02:46;100973.22;;;15.85;72.83
63181;BME280;49273;37.772;-122.432;2022-07-04T04:05:14;100973.58;;;15.84;73.18
63181;BME280;49273;37.772;-122.432;2022-07-04T04:07:42;100975.53;;;15.88;73.10
63181;BME280;49273;37.772;-122.432;2022-07-04T04:10:10;100978.65;;;15.70;73.75
63181;BME280;49273;37.772;-122.432;2022-07-04T04:12:37;100975.68;;;15.73;73.66
63181;BME280;49273;37.772;-122.432;2022-07-04T04:15:06;100983.08;;;15.74;74.23
63181;BME280;49273;37.772;-122.432;2022-07-04T04:17:35;100974.38;;;15.90;73.80
63181;BME280;49273;37.772;-122.432;2022-07-04T04:20:03;100976.06;;;15.80;74.33
63181;BME280;49273;37.772;-122.432;2022-07-04T04:22:32;100981.96;;;15.71;75.05
63181;BME280;49273;37.772;-122.432;2022-07-04T04:25:00;100980.07;;;15.89;74.75
63181;BME280;49273;37.772;-122.432;2022-07-04T04:27:29;100982.63;;;15.89;74.93
63181;BME280;49273;37.772;-122.432;2022-07-04T04:29:57;100987.29;;;15.85;75.14
63181;BME280;49273;37.772;-122.432;2022-07-04T04:32:25;100988.60;;;15.74;75.95
63181;BME280;49273;37.772;-122.432;2022-07-04T04:34:53;100989.32;;;15.66;76.18
63181;BME280;49273;37.772;-122.432;2022-07-04T04:37:21;100990.30;;;15.77;76.27
63181;BME280;49273;37.772;-122.432;2022-07-04T04:39:49;100993.06;;;15.93;75.79
63181;BME280;49273;37.772;-122.432;2022-07-04T04:42:17;100998.00;;;15.74;76.42
63181;BME280;49273;37.772;-122.432;2022-07-04T04:44:45;100994.16;;;15.85;76.53
63181;BME280;49273;37.772;-122.432;2022-07-04T04:47:13;100998.14;;;16.04;75.63
63181;BME280;49273;37.772;-122.432;2022-07-04T04:49:41;100998.43;;;15.93;76.05
63181;BME280;49273;37.772;-122.432;2022-07-04T04:52:08;101000.72;;;15.89;76.61
63181;BME280;49273;37.772;-122.432;2022-07-04T04:54:36;101003.34;;;15.82;76.88
63181;BME280;49273;37.772;-122.432;2022-07-04T04:57:05;100998.99;;;15.90;76.84
63181;BME280;49273;37.772;-122.432;2022-07-04T04:59:33;101000.84;;;15.96;76.55
63181;BME280;49273;37.772;-122.432;2022-07-04T05:02:02;101001.01;;;15.93;76.46
63181;BME280;49273;37.772;-122.432;2022-07-04T05:04:30;101008.54;;;15.70;77.90
63181;BME280;49273;37.772;-122.432;2022-07-04T05:06:58;101009.71;;;15.88;77.41
63181;BME280;49273;37.772;-122.432;2022-07-04T05:09:26;101007.54;;;15.89;77.45
63181;BME280;49273;37.772;-122.432;2022-07-04T05:11:53;101006.08;;;16.02;76.66
63181;BME280;49273;37.772;-122.432;2022-07-04T05:14:21;101012.67;;;15.90;76.89
63181;BME280;49273;37.772;-122.432;2022-07-04T05:16:50;101010.33;;;16.00;77.06
63181;BME280;49273;37.772;-122.432;2022-07-04T05:19:18;101008.97;;;15.85;77.56
63181;BME280;49273;37.772;-122.432;2022-07-04T05:21:46;101009.81;;;16.15;76.39
63181;BME280;49273;37.772;-122.432;2022-07-04T05:24:14;101010.43;;;16.08;76.89
63181;BME280;49273;37.772;-122.432;2022-07-04T05:26:43;101012.66;;;16.21;76.34
63181;BME280;49273;37.772;-122.432;2022-07-04T05:29:11;101010.78;;;16.25;76.10
63181;BME280;49273;37.772;-122.432;2022-07-04T05:31:39;101015.84;;;16.11;76.66
63181;BME280;49273;37.772;-122.432;2022-07-04T05:34:07;101011.45;;;16.12;76.73
63181;BME280;49273;37.772;-122.432;2022-07-04T05:36:35;101009.83;;;15.92;77.43
63181;BME280;49273;37.772;-122.432;2022-07-04T05:39:04;101009.81;;;16.00;77.14
63181;BME280;49273;37.772;-122.432;2022-07-04T05:41:32;101012.25;;;15.91;78.14
63181;BME280;49273;37.772;-122.432;2022-07-04T05:44:00;101010.63;;;16.00;77.69
63181;BME280;49273;37.772;-122.432;2022-07-04T05:46:28;101012.01;;;16.18;77.04
63181;BME280;49273;37.772;-122.432;2022-07-04T05:48:55;101015.96;;;16.26;76.45
63181;BME280;49273;37.772;-122.432;2022-07-04T05:51:23;101017.56;;;16.17;76.98
63181;BME280;49273;37.772;-122.432;2022-07-04T05:53:51;101008.70;;;16.00;77.29
63181;BME280;49273;37.772;-122.432;2022-07-04T05:56:19;101011.06;;;15.98;77.17
63181;BME280;49273;37.772;-122.432;2022-07-04T05:58:47;101007.97;;;16.07;77.32
63181;BME280;49273;37.772;-122.432;2022-07-04T06:01:15;101007.95;;;16.12;76.65
63181;BME280;49273;37.772;-122.432;2022-07-04T06:03:43;101006.91;;;15.84;77.60
63181;BME280;49273;37.772;-122.432;2022-07-04T06:06:11;101006.98;;;15.94;77.60
63181;BME280;49273;37.772;-122.432;2022-07-04T06:08:38;101003.18;;;15.85;77.53
63181;BME280;49273;37.772;-122.432;2022-07-04T06:11:06;100997.71;;;15.80;78.21
63181;BME280;49273;37.772;-122.432;2022-07-04T06:13:34;100990.54;;;15.82;78.15
63181;BME280;49273;37.772;-122.432;2022-07-04T06:16:03;100989.14;;;15.84;78.22
63181;BME280;49273;37.772;-122.432;2022-07-04T06:18:31;100985.81;;;15.88;78.16
63181;BME280;49273;37.772;-122.432;2022-07-04T06:21:00;100983.82;;;15.81;78.47
63181;BME280;49273;37.772;-122.432;2022-07-04T06:23:28;100979.53;;;15.82;78.47
63181;BME280;49273;37.772;-122.432;2022-07-04T06:25:56;100981.10;;;15.94;77.74
63181;BME280;49273;37.772;-122.432;2022-07-04T06:28:23;100977.76;;;15.92;77.79
63181;BME280;49273;37.772;-122.432;2022-07-04T06:30:51;100980.38;;;15.94;77.56
63181;BME280;49273;37.772;-122.432;2022-07-04T06:33:19;100979.48;;;15.72;78.65
63181;BME280;49273;37.772;-122.432;2022-07-04T06:35:47;100979.08;;;15.74;78.75
63181;BME280;49273;37.772;-122.432;2022-07-04T06:38:18;100972.52;;;15.61;78.81
63181;BME280;49273;37.772;-122.432;2022-07-04T06:40:48;100970.80;;;15.55;79.25
63181;BME280;49273;37.772;-122.432;2022-07-04T06:43:16;100972.87;;;15.70;78.87
63181;BME280;49273;37.772;-122.432;2022-07-04T06:45:45;100975.53;;;15.69;78.85
63181;BME280;49273;37.772;-122.432;2022-07-04T06:48:13;100973.54;;;15.52;79.47
63181;BME280;49273;37.772;-122.432;2022-07-04T06:50:41;100976.86;;;15.53;79.61
63181;BME280;49273;37.772;-122.432;2022-07-04T06:53:09;100978.64;;;15.67;79.01
63181;BME280;49273;37.772;-122.432;2022-07-04T06:55:38;100978.24;;;15.70;79.00
63181;BME280;49273;37.772;-122.432;2022-07-04T06:58:07;100976.84;;;15.55;79.54
63181;BME280;49273;37.772;-122.432;2022-07-04T07:00:37;100975.73;;;15.65;79.26
63181;BME280;49273;37.772;-122.432;2022-07-04T07:03:05;100981.57;;;15.43;79.96
63181;BME280;49273;37.772;-122.432;2022-07-04T07:05:34;100988.30;;;15.49;79.84
63181;BME280;49273;37.772;-122.432;2022-07-04T07:08:02;100982.60;;;15.56;79.78
63181;BME280;49273;37.772;-122.432;2022-07-04T07:10:31;100985.09;;;15.58;79.58
63181;BME280;49273;37.772;-122.432;2022-07-04T07:13:00;100985.62;;;15.66;79.29
63181;BME280;49273;37.772;-122.432;2022-07-04T07:15:27;100980.25;;;15.51;79.10
63181;BME280;49273;37.772;-122.432;2022-07-04T07:17:56;100982.09;;;15.61;78.67
63181;BME280;49273;37.772;-122.432;2022-07-04T07:20:24;100982.98;;;15.69;78.46
63181;BME280;49273;37.772;-122.432;2022-07-04T07:22:52;100984.28;;;15.71;78.51
63181;BME280;49273;37.772;-122.432;2022-07-04T07:25:20;100983.30;;;15.65;78.60
63181;BME280;49273;37.772;-122.432;2022-07-04T07:27:47;100974.56;;;15.76;78.18
63181;BME280;49273;37.772;-122.432;2022-07-04T07:30:16;100981.48;;;15.62;78.52
63181;BME280;49273;37.772;-122.432;2022-07-04T07:32:43;100982.32;;;15.75;77.74
63181;BME280;49273;37.772;-122.432;2022-07-04T07:35:12;100980.52;;;15.63;77.81
63181;BME280;49273;37.772;-122.432;2022-07-04T07:37:40;100981.59;;;15.68;77.73
63181;BME280;49273;37.772;-122.432;2022-07-04T07:40:09;100984.27;;;15.73;77.27
63181;BME280;49273;37.772;-122.432;2022-07-04T07:42:37;100979.79;;;15.76;76.70
63181;BME280;49273;37.772;-122.432;2022-07-04T07:45:07;100977.22;;;15.59;76.89
63181;BME280;49273;37.772;-122.432;2022-07-04T07:47:35;100980.17;;;15.74;76.57
63181;BME280;49273;37.772;-122.432;2022-07-04T07:50:03;100975.54;;;15.81;76.54
63181;BME280;49273;37.772;-122.432;2022-07-04T07:52:32;100971.77;;;15.88;76.39
63181;BME280;49273;37.772;-122.432;2022-07-04T07:55:00;100969.20;;;15.94;76.10
63181;BME280;49273;37.772;-122.432;2022-07-04T07:57:28;100963.91;;;15.81;76.74
63181;BME280;49273;37.772;-122.432;2022-07-04T07:59:57;100963.24;;;15.96;76.34
63181;BME280;49273;37.772;-122.432;2022-07-04T08:02:25;100966.97;;;15.67;77.74
63181;BME280;49273;37.772;-122.432;2022-07-04T08:04:53;100970.03;;;15.81;77.37
63181;BME280;49273;37.772;-122.432;2022-07-04T08:07:21;100970.63;;;15.80;77.56
63181;BME280;49273;37.772;-122.432;2022-07-04T08:09:49;100969.96;;;15.85;77.48
63181;BME280;49273;37.772;-122.432;2022-07-04T08:12:17;100966.37;;;15.75;78.18
63181;BME280;49273;37.772;-122.432;2022-07-04T08:14:45;100968.88;;;15.93;77.26
63181;BME280;49273;37.772;-122.432;2022-07-04T08:17:13;100971.90;;;15.85;77.39
63181;BME280;49273;37.772;-122.432;2022-07-04T08:19:41;100973.77;;;15.67;79.01
63181;BME280;49273;37.772;-122.432;2022-07-04T08:22:08;100974.65;;;15.67;79.39
63181;BME280;49273;37.772;-122.432;2022-07-04T08:24:36;100970.56;;;15.79;78.83
63181;BME280;49273;37.772;-122.432;2022-07-04T08:27:04;100971.19;;;15.69;79.54
63181;BME280;49273;37.772;-122.432;2022-07-04T08:29:33;100969.76;;;15.77;78.99
63181;BME280;49273;37.772;-122.432;2022-07-04T08:32:01;100970.23;;;15.56;80.13
63181;BME280;49273;37.772;-122.432;2022-07-04T08:34:30;100967.36;;;15.53;80.16
63181;BME280;49273;37.772;-122.432;2022-07-04T08:36:57;100964.99;;;15.65;79.87
63181;BME280;49273;37.772;-122.432;2022-07-04T08:39:25;100959.69;;;15.65;79.66
63181;BME280;49273;37.772;-122.432;2022-07-04T08:41:56;100964.10;;;15.40;80.54
63181;BME280;49273;37.772;-122.432;2022-07-04T08:44:29;100966.58;;;15.53;80.24
63181;BME280;49273;37.772;-122.432;2022-07-04T08:46:57;100966.00;;;15.70;79.72
63181;BME280;49273;37.772;-122.432;2022-07-04T08:49:29;100964.56;;;15.82;79.21
63181;BME280;49273;37.772;-122.432;2022-07-04T08:52:01;100963.58;;;15.78;79.55
63181;BME280;49273;37.772;-122.432;2022-07-04T08:54:31;100961.64;;;15.64;80.07
63181;BME280;49273;37.772;-122.432;2022-07-04T08:56:59;100957.82;;;15.81;79.85
63181;BME280;49273;37.772;-122.432;2022-07-04T08:59:27;100951.38;;;15.66;80.56
63181;BME280;49273;37.772;-122.432;2022-07-04T09:01:55;100953.29;;;15.79;80.08
63181;BME280;49273;37.772;-122.432;2022-07-04T09:04:23;100947.58;;;15.75;80.27
63181;BME280;49273;37.772;-122.432;2022-07-04T09:06:51;100951.34;;;15.67;80.40
63181;BME280;49273;37.772;-122.432;2022-07-04T09:09:20;100949.58;;;15.61;80.59
63181;BME280;49273;37.772;-122.432;2022-07-04T09:11:48;100948.04;;;15.62;80.58
63181;BME280;49273;37.772;-122.432;2022-07-04T09:14:16;100945.12;;;15.47;81.21
63181;BME280;49273;37.772;-122.432;2022-07-04T09:16:44;100944.18;;;15.56;81.13
63181;BME280;49273;37.772;-122.432;2022-07-04T09:19:20;100942.55;;;15.56;81.49
63181;BME280;49273;37.772;-122.432;2022-07-04T09:21:49;100945.08;;;15.51;81.68
63181;BME280;49273;37.772;-122.432;2022-07-04T09:24:16;100945.31;;;15.49;82.01
63181;BME280;49273;37.772;-122.432;2022-07-04T09:26:49;100943.75;;;15.53;82.42
63181;BME280;49273;37.772;-122.432;2022-07-04T09:29:16;100945.56;;;15.41;82.97
63181;BME280;49273;37.772;-122.432;2022-07-04T09:31:44;100943.07;;;15.34;83.72
63181;BME280;49273;37.772;-122.432;2022-07-04T09:34:12;100942.29;;;15.33;84.04
63181;BME280;49273;37.772;-122.432;2022-07-04T09:36:43;100943.21;;;15.43;83.77
63181;BME280;49273;37.772;-122.432;2022-07-04T09:39:13;100945.80;;;15.46;83.79
63181;BME280;49273;37.772;-122.432;2022-07-04T09:41:59;100946.46;;;15.44;83.85
63181;BME280;49273;37.772;-122.432;2022-07-04T09:44:29;100945.45;;;15.51;83.86
63181;BME280;49273;37.772;-122.432;2022-07-04T09:47:21;100942.05;;;15.45;84.22
63181;BME280;49273;37.772;-122.432;2022-07-04T09:49:59;100945.28;;;15.40;84.54
63181;BME280;49273;37.772;-122.432;2022-07-04T09:52:26;100945.39;;;15.41;84.45
63181;BME280;49273;37.772;-122.432;2022-07-04T09:54:58;100946.26;;;15.46;84.77
63181;BME280;49273;37.772;-122.432;2022-07-04T09:57:26;100941.28;;;15.39;85.06
63181;BME280;49273;37.772;-122.432;2022-07-04T09:59:54;100937.71;;;15.33;84.93
63181;BME280;49273;37.772;-122.432;2022-07-04T10:02:22;100941.81;;;15.18;84.69
63181;BME280;49273;37.772;-122.432;2022-07-04T10:04:52;100940.23;;;15.32;84.58
63181;BME280;49273;37.772;-122.432;2022-07-04T10:07:37;100940.09;;;15.40;83.83
63181;BME280;49273;37.772;-122.432;2022-07-04T10:10:30;100936.76;;;15.52;83.19
63181;BME280;49273;37.772;-122.432;2022-07-04T10:12:59;100933.01;;;15.41;83.02
63181;BME280;49273;37.772;-122.432;2022-07-04T10:15:27;100931.43;;;15.62;82.10
63181;BME280;49273;37.772;-122.432;2022-07-04T10:17:55;100932.52;;;15.63;81.83
63181;BME280;49273;37.772;-122.432;2022-07-04T10:20:23;100930.64;;;15.64;81.79
63181;BME280;49273;37.772;-122.432;2022-07-04T10:22:51;100926.81;;;15.66;81.67
63181;BME280;49273;37.772;-122.432;2022-07-04T10:25:19;100923.53;;;15.37;82.93
63181;BME280;49273;37.772;-122.432;2022-07-04T10:27:47;100925.98;;;15.51;82.58
63181;BME280;49273;37.772;-122.432;2022-07-04T10:30:16;100932.40;;;15.66;81.54
63181;BME280;49273;37.772;-122.432;2022-07-04T10:32:46;100931.39;;;15.51;82.46
63181;BME280;49273;37.772;-122.432;2022-07-04T10:35:15;100930.85;;;15.44;83.25
63181;BME280;49273;37.772;-122.432;2022-07-04T10:38:00;100929.79;;;15.69;82.28
63181;BME280;49273;37.772;-122.432;2022-07-04T10:40:47;100925.84;;;15.51;82.94
63181;BME280;49273;37.772;-122.432;2022-07-04T10:43:54;100923.32;;;15.63;82.63
63181;BME280;49273;37.772;-122.432;2022-07-04T10:46:45;100919.55;;;15.52;83.33
63181;BME280;49273;37.772;-122.432;2022-07-04T10:49:23;100918.92;;;15.49;83.67
63181;BME280;49273;37.772;-122.432;2022-07-04T10:51:52;100918.11;;;15.50;83.69
63181;BME280;49273;37.772;-122.432;2022-07-04T10:54:27;100922.39;;;15.70;82.69
63181;BME280;49273;37.772;-122.432;2022-07-04T10:56:57;100921.52;;;15.58;83.14
63181;BME280;49273;37.772;-122.432;2022-07-04T10:59:34;100919.92;;;15.48;83.71
63181;BME280;49273;37.772;-122.432;2022-07-04T11:02:36;100914.78;;;15.39;84.34
63181;BME280;49273;37.772;-122.432;2022-07-04T11:05:05;100915.87;;;15.47;84.26
63181;BME280;49273;37.772;-122.432;2022-07-04T11:08:10;100917.19;;;15.41;84.52
63181;BME280;49273;37.772;-122.432;2022-07-04T11:10:38;100919.70;;;15.46;84.54
63181;BME280;49273;37.772;-122.432;2022-07-04T11:13:17;100919.69;;;15.53;84.14
63181;BME280;49273;37.772;-122.432;2022-07-04T11:16:17;100920.18;;;15.68;83.20
63181;BME280;49273;37.772;-122.432;2022-07-04T11:18:45;100919.26;;;15.59;83.35
63181;BME280;49273;37.772;-122.432;2022-07-04T11:21:20;100918.41;;;15.71;82.93
63181;BME280;49273;37.772;-122.432;2022-07-04T11:23:52;100916.89;;;15.43;84.14
63181;BME280;49273;37.772;-122.432;2022-07-04T11:26:21;100913.82;;;15.53;84.60
63181;BME280;49273;37.772;-122.432;2022-07-04T11:28:50;100913.72;;;15.53;84.87
63181;BME280;49273;37.772;-122.432;2022-07-04T11:31:17;100913.04;;;15.52;84.72
63181;BME280;49273;37.772;-122.432;2022-07-04T11:33:47;100913.33;;;15.49;85.01
63181;BME280;49273;37.772;-122.432;2022-07-04T11:36:16;100914.17;;;15.39;85.49
63181;BME280;49273;37.772;-122.432;2022-07-04T11:38:46;100917.64;;;15.39;85.31
63181;BME280;49273;37.772;-122.432;2022-07-04T11:41:16;100914.70;;;15.41;85.27
63181;BME280;49273;37.772;-122.432;2022-07-04T11:43:45;100913.89;;;15.46;85.00
63181;BME280;49273;37.772;-122.432;2022-07-04T11:46:13;100916.66;;;15.62;84.55
63181;BME280;49273;37.772;-122.432;2022-07-04T11:48:41;100913.90;;;15.59;84.30
63181;BME280;49273;37.772;-122.432;2022-07-04T11:51:17;100910.67;;;15.71;83.72
63181;BME280;49273;37.772;-122.432;2022-07-04T11:53:45;100912.96;;;15.67;84.24
63181;BME280;49273;37.772;-122.432;2022-07-04T11:56:12;100909.42;;;15.58;84.76
63181;BME280;49273;37.772;-122.432;2022-07-04T11:58:41;100910.79;;;15.57;84.93
63181;BME280;49273;37.772;-122.432;2022-07-04T12:01:09;100911.75;;;15.77;84.97
63181;BME280;49273;37.772;-122.432;2022-07-04T12:03:37;100911.12;;;15.68;84.59
63181;BME280;49273;37.772;-122.432;2022-07-04T12:06:05;100912.34;;;15.66;84.93
63181;BME280;49273;37.772;-122.432;2022-07-04T12:08:34;100909.92;;;15.78;84.59
63181;BME280;49273;37.772;-122.432;2022-07-04T12:11:02;100907.04;;;16.04;83.20
63181;BME280;49273;37.772;-122.432;2022-07-04T12:13:30;100904.96;;;15.93;83.67
63181;BME280;49273;37.772;-122.432;2022-07-04T12:15:57;100903.06;;;15.71;84.81
63181;BME280;49273;37.772;-122.432;2022-07-04T12:18:27;100905.56;;;15.67;85.29
63181;BME280;49273;37.772;-122.432;2022-07-04T12:21:09;100906.66;;;15.82;84.92
63181;BME280;49273;37.772;-122.432;2022-07-04T12:23:39;100903.83;;;15.77;85.20
63181;BME280;49273;37.772;-122.432;2022-07-04T12:26:07;100903.39;;;15.79;84.75
63181;BME280;49273;37.772;-122.432;2022-07-04T12:28:36;100902.81;;;15.90;84.42
63181;BME280;49273;37.772;-122.432;2022-07-04T12:31:04;100901.79;;;15.98;83.87